Goldfield, Nevada Weather observations

Data are for observation ending at time listed.
 Day   Time    Ave.   Ave.  Ave.  Vector   Max.   Stn.    Total    Solar   Ave.  
  of    of     Air    Rel.  Wind   Wind    Wind   Baro.  Precip.   Rad.    Soil  
Year   Day     Temp.  Hum.  Speed  Dir.    Gust   Pres.                    Temp. 
2014   (PST)    F      %     mph   deg.    mph     mb.     in.     W/m2     F   
------------------------------------------------------------------------------
 274    5:00   45.7    62   15.4   311     20.9   827.9    0.00       0    56.7
 274    5:10   46.1    61   14.7   305     20.9   828.1    0.00       0    56.6
 274    5:20   45.8    61   14.3   312     20.3   828.3    0.00       1    56.5
 274    5:30   44.9    64   13.2   301     16.1   828.5    0.00       0    56.3
 274    5:40   44.5    64   13.2   302     17.2   828.6    0.00       3    56.2
 274    5:50   44.3    64   12.5   307     16.5   829.0    0.00       4    55.9
 274    6:00   44.2    64    9.5   312     12.3   829.2    0.00      10    56.0
 274    6:10   44.3    63    9.5   313     13.6   829.3    0.00      35    55.9
 274    6:20   45.6    60    7.8   312     11.5   829.4    0.00      75    55.9
 274    6:30   46.6    58    6.4   329     11.2   829.7    0.00     114    55.7
 274    6:40   47.0    57    5.0   347      9.2   829.8    0.00     143    55.6
 274    6:50   47.9    55    6.4   340     11.2   829.8    0.00     183    55.4
 274    7:00   48.4    53    8.0   334     14.0   829.9    0.00     219    55.4
 274    7:10   48.8    52    9.7   326     15.3   829.8    0.00     257    55.4
 274    7:20   49.3    50   10.8   322     16.7   829.9    0.00     293    55.3
 274    7:30   49.5    50    9.4   330     15.4   830.1    0.00     327    55.4
 274    7:40   49.9    50   10.2   322     17.2   830.2    0.00     361    55.4
 274    7:50   50.1    49   12.8   320     19.4   830.3    0.00     396    55.4
 274    8:00   50.2    48   15.8   320     22.6   830.4    0.00     428    55.5
 274    8:10   50.5    45   15.2   322     21.5   830.4    0.00     460    55.5
 274    8:20   51.0    45   13.7   323     20.8   830.5    0.00     492    55.7
 274    8:30   51.2    46   16.0   316     22.4   830.7    0.00     522    55.7
 274    8:40   50.7    46   15.9   315     22.1   830.9    0.00     551    55.7
 274    8:50   51.7    44   16.3   310     22.1   831.0    0.00     577    55.7
 274    9:00   51.8    44   15.1   316     20.7   831.0    0.00     606    55.7
 274    9:10   52.0    42   16.6   315     23.5   831.0    0.00     631    55.9
 274    9:20   52.3    42   16.7   320     23.4   830.8    0.00     656    56.1
 274    9:30   52.9    40   17.5   321     24.5   830.6    0.00     679    56.4
 274    9:40   53.4    39   16.2   322     24.0   830.8    0.00     700    56.6
 274    9:50   54.1    36   16.6   320     22.1   830.7    0.00     719    56.8
 274   10:00   54.2    36   15.0   323     22.6   830.7    0.00     736    57.1
 274   10:10   54.7    35   13.8   324     24.0   830.7    0.00     752    57.4
 274   10:20   55.5    34   13.2   322     19.5   830.8    0.00     765    57.7
 274   10:30   56.3    33   11.9   322     20.5   830.7    0.00     778    58.0
 274   10:40   56.5    32   13.4   313     20.9   830.7    0.00     786    58.2
 274   10:50   57.1    32   15.3   326     25.9   830.5    0.00     797    58.5
 274   11:00   57.5    30   15.5   313     23.3   830.6    0.00     803    58.6
 274   11:10   58.1    28   16.7   317     27.3   830.5    0.00     810    58.7
 274   11:20   58.0    26   16.5   313     24.0   830.4    0.00     815    58.8
 274   11:30   59.0    26   17.1   313     25.0   830.4    0.00     816    58.9
 274   11:40   59.0    26   19.2   313     29.2   830.4    0.00     816    58.8
 274   11:50   59.8    26   16.2   309     25.1   830.4    0.00     815    59.0
 274   12:00   59.9    24   18.6   314     26.7   830.3    0.00     811    59.1
 274   12:10   59.9    22   14.6   317     24.5   830.4    0.00     808    59.3
 274   12:20   60.6    21   18.2   319     29.0   830.2    0.00     800    59.5
 274   12:30   60.4    21   16.3   322     24.3   830.1    0.00     791    59.9
 274   12:40   60.8    20   15.0   324     21.9   830.0    0.00     780    60.1
 274   12:50   60.7    19   15.8   323     25.2   830.1    0.00     769    60.3
 274   13:00   61.6    18   15.4   317     24.9   830.1    0.00     756    60.6
 274   13:10   61.1    19   14.0   317     21.7   829.9    0.00     741    60.8
 274   13:20   61.9    18   14.8   320     22.7   829.8    0.00     724    61.1
 274   13:30   61.8    17   15.2   313     22.9   829.8    0.00     705    61.3
 274   13:40   62.4    16   14.2   308     21.1   829.8    0.00     687    61.4
 274   13:50   62.5    16   12.9   323     21.3   829.7    0.00     663    61.6
 274   14:00   62.3    16   11.6   320     17.2   829.8    0.00     640    61.8
 274   14:10   62.1    16   12.4   318     19.4   829.7    0.00     615    61.9
 274   14:20   62.5    16   13.1   312     20.2   829.8    0.00     589    62.0
 274   14:30   62.7    16   11.4   314     18.1   829.8    0.00     562    62.1
 274   14:40   62.4    16   13.4   317     20.2   829.8    0.00     533    62.0
 274   14:50   62.5    16   11.6   310     17.7   829.9    0.00     503    61.8
 274   15:00   62.6    17   12.2   318     18.4   829.9    0.00     472    62.0
 274   15:10   62.7    17   10.3   312     19.8   829.9    0.00     440    62.1
 274   15:20   63.5    16   13.0   304     18.7   830.1    0.00     408    62.0
 274   15:30   63.0    16   12.0   310     16.5   830.0    0.00     375    62.0
 274   15:40   63.1    16   10.6   314     16.5   830.0    0.00     342    62.0
 274   15:50   63.3    16   10.8   312     15.8   830.0    0.00     308    62.0
 274   16:00   63.1    16   11.6   314     16.3   829.9    0.00     275    61.9
 274   16:10   62.8    16   11.4   314     16.7   829.9    0.00     242    61.9
 274   16:20   62.6    16   11.4   317     16.5   829.8    0.00     207    61.9
 274   16:30   62.4    16   11.6   315     15.9   829.8    0.00     173    61.9
 274   16:40   62.5    16   11.2   312     17.3   829.8    0.00     142    61.8
 274   16:50   62.0    17   12.1   317     16.1   829.9    0.00     104    61.8
 274   17:00   61.7    18   10.8   311     14.9   830.0    0.00      52    61.8
 274   17:10   60.7    19    9.4   314     12.6   829.9    0.00      17    61.7
 274   17:20   60.0    19    9.0   314     12.1   830.0    0.00      14    61.7
 274   17:30   59.1    20    6.7   310      9.8   830.0    0.00       9    61.7
 274   17:40   57.8    22    6.2   310      9.0   830.1    0.00       5    61.5
 274   17:50   57.6    22    6.9   311      9.8   830.1    0.00       1    61.4
 274   18:00   56.2    24    5.6   300      7.3   830.1    0.00       0    61.4
 274   18:10   54.6    26    5.7   295      7.3   830.2    0.00       0    61.2
 274   18:20   53.8    27    6.6   288      8.9   830.2    0.00       0    61.3
 274   18:30   54.0    26    6.8   285      9.4   830.4    0.00       0    61.1
 274   18:40   54.2    26    7.4   282      9.8   830.5    0.00       0    61.0
 274   18:50   54.0    26    7.5   285     10.2   830.6    0.00       0    60.9
 274   19:00   53.7    27    8.3   283     10.8   830.7    0.00       0    60.8
 274   19:10   53.6    27    8.4   286     11.2   830.7    0.00       0    60.6
 274   19:20   53.3    27    7.7   284     10.5   830.8    0.00       0    60.4
 274   19:30   52.9    28    7.1   282      9.0   831.0    0.00       0    60.2
 274   19:40   52.6    28    7.2   291     10.1   831.1    0.00       0    60.2
 274   19:50   53.1    27    7.4   298     11.1   831.3    0.00       0    60.0
 274   20:00   52.4    28    7.4   283     11.5   831.5    0.00       0    60.1
 274   20:10   52.2    28    7.8   285     11.2   831.5    0.00       0    59.7
 274   20:20   51.8    29    7.8   290     11.3   831.6    0.00       0    59.6
 274   20:30   51.3    30    6.0   285      8.8   831.8    0.00       0    59.6
 274   20:40   51.2    30    6.2   287      8.9   831.9    0.00       0    59.4
 274   20:50   50.8    30    4.2   303      7.7   832.1    0.00       0    59.3
 274   21:00   50.3    31    1.5   322      3.7   832.2    0.00       0    59.2
 274   21:10   49.6    31    5.8   285      7.5   832.3    0.00       0    59.0
 274   21:20   49.5    32    5.3   277      8.6   832.4    0.00       0    58.9
 274   21:30   50.0    31    6.5   282      9.8   832.5    0.00       0    58.8
 274   21:40   49.3    32    6.0   284      8.4   832.5    0.00       0    58.6
 274   21:50   48.4    33    5.1   283      7.2   832.6    0.00       0    58.4
 274   22:00   48.1    33    5.9   282      9.1   832.6    0.00       0    58.4
 274   22:10   48.0    33    5.9   292      7.2   832.5    0.00       0    58.3
 274   22:20   47.3    34    6.0   284      8.1   832.5    0.00       0    58.1
 274   22:30   47.2    35    5.4   287      6.9   832.5    0.00       0    57.9
 274   22:40   47.1    35    5.4   278      8.8   832.7    0.00       0    57.8
 274   22:50   47.6    34    3.3   274      5.9   832.8    0.00       0    57.7
 274   23:00   47.9    34    4.3   268      6.7   832.8    0.00       0    57.5
 274   23:10   47.5    35    4.5   273      7.1   832.8    0.00       0    57.5
 274   23:20   47.3    35    5.4   276      7.9   832.8    0.00       0    57.3
 274   23:30   46.9    36    5.6   287      7.6   832.8    0.00       0    57.2
 274   23:40   46.1    37    4.2   282      5.8   832.8    0.00       0    57.0
 274   23:50   46.2    37    5.3   290      8.0   832.8    0.00       0    56.9
 275    0:00   46.3    37    7.2   293      9.8   832.8    0.00       0    56.9
 275    0:10   45.7    38    5.7   292      9.1   832.9    0.00       0    56.6
 275    0:20   45.2    39    5.2   294      7.3   832.9    0.00       0    56.6
 275    0:30   45.6    39    3.2   310      5.0   833.0    0.00       0    56.4
 275    0:40   45.0    40    0.6   347      2.8   833.1    0.00       0    56.3
 275    0:50   44.1    41    2.9   276      5.7   833.2    0.00       0    56.2
 275    1:00   43.9    41    3.6   299      6.5   833.2    0.00       0    56.1
 275    1:10   44.0    41    3.6   310      5.7   833.2    0.00       0    56.0
 275    1:20   43.2    43    1.0    70      2.9   833.3    0.00       0    55.8
 275    1:30   41.8    45    0.8   108      2.0   833.3    0.00       0    55.8
 275    1:40   41.5    45    1.7    47      3.1   833.3    0.00       0    55.5
 275    1:50   40.7    46    0.6    16      1.7   833.2    0.00       0    55.5
 275    2:00   40.4    46    1.5   120      4.8   833.2    0.00       0    55.5
 275    2:10   40.7    45    1.9    89      5.3   833.4    0.00       0    55.2
 275    2:20   41.1    45    3.5   118      4.2   833.4    0.00       0    55.2
 275    2:30   42.3    43    3.8   145      4.7   833.4    0.00       0    55.0
 275    2:40   43.3    41    3.7   155      5.8   833.4    0.00       0    54.9
 275    2:50   42.5    43    1.6   140      4.3   833.4    0.00       0    54.8
 275    3:00   40.3    46    3.4   114      5.0   833.4    0.00       0    54.6
 275    3:10   41.2    44    3.2   121      4.6   833.4    0.00       0    54.5
 275    3:20   42.2    43    2.6   132      3.8   833.4    0.00       0    54.4
 275    3:30   41.2    45    2.2   151      3.5   833.4    0.00       0    54.3
 275    3:40   40.5    46    1.9   140      2.8   833.4    0.00       0    54.2
 275    3:50   39.1    48    2.0   150      3.2   833.4    0.00       0    54.1
 275    4:00   39.3    47    1.9   132      4.7   833.6    0.00       0    54.0
 275    4:10   39.0    48    1.5   178      3.1   833.7    0.00       0    53.8
 275    4:20   39.5    46    2.3   136      3.4   834.0    0.00       0    53.8
 275    4:30   38.5    48    1.8   138      2.7   833.9    0.00       0    53.6
 275    4:40   37.7    50    1.8   181      2.9   834.0    0.00       0    53.5
 275    4:50   37.7    50    1.8   162      2.7   834.1    0.00       0    53.4

Return to Goldfield, Nevada graphs page.


Western Regional Climate Center,wrcc@dri.edu